createdAt,value
2018-06-29T00:04:57.161Z,100
2018-06-29T00:09:57.689Z,100
2018-06-29T00:14:57.604Z,100
2018-06-29T00:20:09.518Z,100
2018-06-29T00:25:09.219Z,100
2018-06-29T00:30:09.227Z,100
2018-06-29T00:35:09.239Z,100
2018-06-29T00:40:09.254Z,100
2018-06-29T00:45:10.443Z,100
2018-06-29T00:50:10.176Z,100
2018-06-29T00:55:10.183Z,100
2018-06-29T01:00:10.172Z,100
2018-06-29T01:05:10.174Z,100
2018-06-29T01:10:10.182Z,100
2018-06-29T01:15:10.202Z,100
2018-06-29T01:20:10.698Z,100
2018-06-29T01:25:10.420Z,100
2018-06-29T01:30:22.651Z,100
2018-06-29T01:35:22.558Z,100
2018-06-29T01:40:22.382Z,100
2018-06-29T01:45:22.520Z,100
2018-06-29T01:50:22.395Z,100
2018-06-29T01:55:22.386Z,100
2018-06-29T02:00:22.383Z,100
2018-06-29T02:05:22.411Z,100
2018-06-29T02:10:22.586Z,100
2018-06-29T02:15:33.350Z,100
2018-06-29T02:20:33.086Z,100
2018-06-29T02:25:33.082Z,100
2018-06-29T02:30:33.348Z,100
2018-06-29T02:35:33.083Z,100
2018-06-29T02:40:33.090Z,100
2018-06-29T02:45:33.109Z,100
2018-06-29T02:50:36.026Z,100
2018-06-29T02:55:35.879Z,100
2018-06-29T03:00:48.459Z,100
2018-06-29T03:05:48.149Z,100
2018-06-29T03:10:48.187Z,100
2018-06-29T03:15:48.059Z,100
2018-06-29T03:20:48.035Z,100
2018-06-29T03:25:48.153Z,100
2018-06-29T03:30:48.039Z,100
2018-06-29T03:35:48.302Z,100
2018-06-29T03:40:48.287Z,100
2018-06-29T03:46:00.253Z,100
2018-06-29T03:51:00.131Z,100
2018-06-29T03:56:00.097Z,100
2018-06-29T04:01:00.241Z,100
2018-06-29T04:06:00.013Z,100
2018-06-29T04:10:59.992Z,100
2018-06-29T04:16:00.017Z,100
2018-06-29T04:21:03.630Z,100
2018-06-29T04:26:03.379Z,100
2018-06-29T04:31:15.894Z,100
2018-06-29T04:36:15.828Z,100
2018-06-29T04:41:15.608Z,100
2018-06-29T04:46:15.852Z,100
2018-06-29T04:51:15.775Z,100
2018-06-29T04:56:15.611Z,100
2018-06-29T05:01:15.765Z,100
2018-06-29T05:06:16.320Z,100
2018-06-29T05:11:16.263Z,100
2018-06-29T05:16:29.138Z,100
2018-06-29T05:21:28.833Z,100
2018-06-29T05:26:29.048Z,100
2018-06-29T05:31:28.821Z,100
2018-06-29T05:36:28.872Z,100
2018-06-29T05:41:29.179Z,100
2018-06-29T05:46:29.091Z,100
2018-06-29T05:51:29.048Z,100
2018-06-29T05:56:29.061Z,100
2018-06-29T06:01:41.574Z,100
2018-06-29T06:06:41.503Z,100
2018-06-29T06:11:41.268Z,100
2018-06-29T06:16:41.444Z,100
2018-06-29T06:21:41.492Z,100
2018-06-29T06:26:41.328Z,100
2018-06-29T06:31:41.458Z,100
2018-06-29T06:36:44.290Z,100
2018-06-29T06:41:44.476Z,100
2018-06-29T06:46:56.594Z,100
2018-06-29T06:51:56.468Z,100
2018-06-29T06:56:56.381Z,100
2018-06-29T07:01:56.430Z,100
2018-06-29T07:06:56.241Z,100
2018-06-29T07:11:56.249Z,100
2018-06-29T07:16:56.426Z,100
2018-06-29T07:21:57.385Z,100
2018-06-29T07:26:57.308Z,100
2018-06-29T07:32:09.947Z,100
2018-06-29T07:37:09.866Z,100
2018-06-29T07:42:09.909Z,100
2018-06-29T07:47:09.804Z,100
2018-06-29T07:52:12.575Z,100
2018-06-29T07:57:09.689Z,100
2018-06-29T08:02:09.824Z,100
2018-06-29T08:07:12.455Z,100
2018-06-29T08:12:12.362Z,100
2018-06-29T08:17:26.271Z,100
2018-06-29T08:22:26.005Z,100
2018-06-29T08:27:25.990Z,100
2018-06-29T08:32:26.225Z,100
2018-06-29T08:37:26.139Z,100
2018-06-29T08:42:26.170Z,100
2018-06-29T08:47:26.224Z,100
2018-06-29T08:52:26.157Z,100
2018-06-29T08:57:26.143Z,100
2018-06-29T09:02:38.591Z,100
2018-06-29T09:07:38.402Z,100
2018-06-29T09:12:38.452Z,100
2018-06-29T09:17:38.508Z,100
2018-06-29T09:22:38.532Z,100
2018-06-29T09:27:38.323Z,100
2018-06-29T09:32:38.520Z,100
2018-06-29T09:37:38.367Z,100
2018-06-29T09:42:38.621Z,100
2018-06-29T09:47:50.465Z,100
2018-06-29T09:52:50.054Z,100
2018-06-29T09:57:50.046Z,100
2018-06-29T10:02:50.274Z,100
2018-06-29T10:07:50.047Z,100
2018-06-29T10:12:50.232Z,100
2018-06-29T10:17:55.329Z,100
2018-06-29T10:22:54.986Z,100
2018-06-29T10:27:55.487Z,100
2018-06-29T10:33:03.178Z,99.3
2018-06-29T10:38:03.123Z,97.9
2018-06-29T10:43:02.925Z,98.2
2018-06-29T10:48:02.924Z,97.5
2018-06-29T10:53:03.036Z,97.6
2018-06-29T10:58:02.922Z,96.9
2018-06-29T11:03:02.947Z,96
2018-06-29T11:08:03.231Z,95.4
2018-06-29T11:13:03.142Z,94.5
2018-06-29T11:18:15.525Z,94.5
2018-06-29T11:23:15.132Z,94.3
2018-06-29T11:28:15.312Z,92.9
2018-06-29T11:33:15.647Z,93.6
2018-06-29T11:38:15.337Z,91.5
2018-06-29T11:43:15.202Z,91.8
2018-06-29T11:48:15.353Z,91.4
2018-06-29T11:53:15.343Z,89.4
2018-06-29T11:58:18.202Z,89.9
2018-06-29T12:03:15.276Z,89.7
2018-06-29T12:08:15.355Z,88.5
2018-06-29T12:13:15.337Z,88.8
2018-06-29T12:18:15.790Z,87.5
2018-06-29T12:23:15.532Z,86
2018-06-29T12:28:28.242Z,84.9
2018-06-29T12:33:28.147Z,85.2
2018-06-29T12:38:28.078Z,85.2
2018-06-29T12:43:27.953Z,86
2018-06-29T12:48:28.176Z,85.1
2018-06-29T12:53:28.133Z,84.3
2018-06-29T12:58:28.369Z,84.8
2018-06-29T13:03:28.295Z,85.7
2018-06-29T13:08:28.027Z,85.9
2018-06-29T13:13:40.421Z,85.9
2018-06-29T13:18:40.274Z,85.5
2018-06-29T13:23:40.245Z,84.4
2018-06-29T13:28:40.309Z,85.4
2018-06-29T13:33:40.375Z,85.3
2018-06-29T13:38:41.746Z,86.4
2018-06-29T13:43:41.691Z,86.6
2018-06-29T13:48:41.469Z,87.7
2018-06-29T13:53:41.472Z,87
2018-06-29T13:58:41.507Z,89
2018-06-29T14:03:41.853Z,89.7
2018-06-29T14:08:41.456Z,89.4
2018-06-29T14:13:42.926Z,89
2018-06-29T14:18:42.659Z,88.9
2018-06-29T14:23:55.643Z,88.3
2018-06-29T14:28:55.047Z,87.4
2018-06-29T14:33:54.867Z,87
2018-06-29T14:38:54.933Z,87.5
2018-06-29T14:43:54.889Z,88.3
2018-06-29T14:48:54.941Z,89.6
2018-06-29T14:53:54.937Z,91.5
2018-06-29T14:58:57.452Z,93.1
2018-06-29T15:03:55.812Z,92.6
2018-06-29T15:09:08.088Z,92.4
2018-06-29T15:14:07.813Z,92.3
2018-06-29T15:19:08.005Z,89.9
2018-06-29T15:24:08.039Z,90
2018-06-29T15:29:08.049Z,88.8
2018-06-29T15:34:07.819Z,89.4
2018-06-29T15:39:07.818Z,90
2018-06-29T15:44:10.282Z,90.4
2018-06-29T15:49:10.132Z,90.7
2018-06-29T15:54:22.651Z,93
2018-06-29T15:59:22.404Z,96.9
2018-06-29T16:04:22.396Z,97.4
2018-06-29T16:09:22.416Z,97.8
2018-06-29T16:14:22.391Z,99
2018-06-29T16:19:22.433Z,99.1
2018-06-29T16:24:22.434Z,100
2018-06-29T16:29:22.475Z,100
2018-06-29T16:34:22.416Z,100
2018-06-29T16:39:33.843Z,100
2018-06-29T16:44:33.574Z,100
2018-06-29T16:49:33.790Z,100
2018-06-29T16:54:33.534Z,100
2018-06-29T16:59:33.550Z,100
2018-06-29T17:04:33.556Z,100
2018-06-29T17:09:33.555Z,100
2018-06-29T17:14:35.912Z,100
2018-06-29T17:19:35.621Z,100
2018-06-29T17:24:45.815Z,100
2018-06-29T17:29:45.542Z,100
2018-06-29T17:34:45.540Z,100
2018-06-29T17:39:45.552Z,100
2018-06-29T17:44:45.640Z,100
2018-06-29T17:49:45.637Z,100
2018-06-29T17:54:45.660Z,100
2018-06-29T17:59:45.739Z,100
2018-06-29T18:04:45.642Z,100
2018-06-29T18:09:56.845Z,100
2018-06-29T18:14:56.532Z,100
2018-06-29T18:19:56.540Z,100
2018-06-29T18:24:56.573Z,100
2018-06-29T18:29:56.556Z,100
2018-06-29T18:34:56.527Z,100
2018-06-29T18:39:56.668Z,100
2018-06-29T18:44:58.883Z,100
2018-06-29T18:49:58.795Z,100
2018-06-29T18:55:11.442Z,100
2018-06-29T19:00:11.218Z,100
2018-06-29T19:05:11.148Z,100
2018-06-29T19:10:11.198Z,100
2018-06-29T19:15:11.097Z,100
2018-06-29T19:20:11.049Z,100
2018-06-29T19:25:11.281Z,100
2018-06-29T19:30:11.043Z,100
2018-06-29T19:35:11.124Z,100
2018-06-29T19:40:22.760Z,100
2018-06-29T19:45:22.719Z,100
2018-06-29T19:50:22.932Z,100
2018-06-29T19:55:22.752Z,100
2018-06-29T20:00:22.763Z,100
2018-06-29T20:05:22.755Z,100
2018-06-29T20:10:22.887Z,100
2018-06-29T20:15:23.888Z,100
2018-06-29T20:20:24.479Z,100
2018-06-29T20:25:40.447Z,100
2018-06-29T20:30:39.979Z,100
2018-06-29T20:35:39.682Z,100
2018-06-29T20:40:39.876Z,100
2018-06-29T20:45:38.826Z,100
2018-06-29T20:50:39.870Z,100
2018-06-29T20:55:39.829Z,100
2018-06-29T21:00:39.608Z,100
2018-06-29T21:05:39.604Z,100
2018-06-29T21:10:39.608Z,100
2018-06-29T21:15:39.606Z,100
2018-06-29T21:20:39.613Z,100
2018-06-29T21:25:39.610Z,100
2018-06-29T21:30:40.031Z,100
2018-06-29T21:35:51.231Z,100
2018-06-29T21:40:51.048Z,100
2018-06-29T21:45:50.941Z,100
2018-06-29T21:50:50.944Z,100
2018-06-29T21:55:50.956Z,100
2018-06-29T22:00:50.947Z,100
2018-06-29T22:05:50.953Z,100
2018-06-29T22:10:52.189Z,100
2018-06-29T22:15:52.108Z,100
2018-06-29T22:21:04.217Z,100
2018-06-29T22:26:03.950Z,100
2018-06-29T22:31:03.932Z,100
2018-06-29T22:36:03.941Z,100
2018-06-29T22:41:03.946Z,100
2018-06-29T22:46:04.619Z,100
2018-06-29T22:51:03.939Z,100
2018-06-29T22:56:08.782Z,100
2018-06-29T23:01:08.830Z,100
2018-06-29T23:06:20.470Z,100
2018-06-29T23:11:20.320Z,100
2018-06-29T23:16:20.193Z,100
2018-06-29T23:21:20.276Z,100
2018-06-29T23:26:20.305Z,100
2018-06-29T23:31:20.203Z,100
2018-06-29T23:36:20.200Z,100
2018-06-29T23:41:20.760Z,100
2018-06-29T23:46:20.492Z,100
2018-06-29T23:51:32.632Z,100
2018-06-29T23:56:32.334Z,100
